Time;durP1;ratioP1;P1;durP2;ratioP2;P2;SDS_P1;SDS_P2;PMS_P1;PMS_P2;Temp;Humidity;BMP_temperature;BMP_pressure;BME280_temperature;BME280_humidity;BME280_pressure;Samples;Min_cycle;Max_cycle;Signal;HPM_P1;HPM_P2
2023/10/17 00:01:13;;;;;;;9.05;8.25;;;13.00;99.90;;;;;;5167880;28;20034;-74
2023/10/17 00:03:45;;;;;;;9.82;8.93;;;13.00;99.90;;;;;;5167869;28;20090;-74
2023/10/17 00:06:22;;;;;;;10.48;9.25;;;13.10;99.90;;;;;;5185138;28;20529;-77
2023/10/17 00:08:53;;;;;;;11.20;8.20;;;12.90;99.90;;;;;;5185250;28;20040;-74
2023/10/17 00:11:32;;;;;;;12.70;7.55;;;12.90;99.90;;;;;;5184556;28;20022;-74
2023/10/17 00:14:11;;;;;;;11.73;8.07;;;13.00;99.90;;;;;;5184539;28;20028;-75
2023/10/17 00:16:42;;;;;;;9.73;8.55;;;12.90;99.90;;;;;;5166426;28;20117;-76
2023/10/17 00:19:16;;;;;;;11.43;8.30;;;13.10;99.90;;;;;;5183889;28;20481;-75
2023/10/17 00:21:49;;;;;;;10.35;8.50;;;13.10;99.90;;;;;;5166413;28;20030;-76
2023/10/17 00:24:20;;;;;;;9.65;8.65;;;13.10;99.90;;;;;;5184046;28;20053;-74
2023/10/17 00:26:51;;;;;;;10.02;8.95;;;12.70;99.90;;;;;;5183453;28;20037;-76
2023/10/17 00:29:22;;;;;;;9.38;8.45;;;12.80;99.90;;;;;;5184107;28;20473;-75
2023/10/17 00:31:53;;;;;;;8.70;7.80;;;12.90;99.90;;;;;;5167162;28;20026;-76
2023/10/17 00:34:25;;;;;;;10.38;7.70;;;13.00;99.90;;;;;;5184776;28;20033;-75
2023/10/17 00:37:14;;;;;;;8.73;8.02;;;13.10;99.90;;;;;;5184688;28;20105;-76
2023/10/17 00:39:46;;;;;;;9.48;8.30;;;12.80;99.90;;;;;;5167227;28;20030;-74
2023/10/17 00:42:29;;;;;;;9.35;7.15;;;12.90;99.90;;;;;;5184997;28;20026;-74
2023/10/17 00:45:00;;;;;;;10.80;6.93;;;13.00;99.90;;;;;;5185100;28;20029;-75
2023/10/17 00:47:32;;;;;;;9.32;6.90;;;13.00;99.90;;;;;;5184559;28;20065;-74
2023/10/17 00:50:12;;;;;;;8.15;7.35;;;12.90;99.90;;;;;;5167194;28;20386;-74
2023/10/17 00:52:44;;;;;;;13.40;5.97;;;12.70;99.90;;;;;;5166916;28;20136;-74
2023/10/17 00:55:18;;;;;;;10.15;7.07;;;12.90;99.90;;;;;;5184378;28;20036;-74
2023/10/17 00:57:50;;;;;;;8.45;6.82;;;12.90;99.90;;;;;;5184137;28;20083;-77
2023/10/17 01:00:35;;;;;;;9.80;6.68;;;13.10;99.90;;;;;;5184333;28;20478;-75
2023/10/17 01:03:13;;;;;;;8.63;6.40;;;12.70;99.90;;;;;;5184693;28;20484;-74
2023/10/17 01:06:13;;;;;;;7.25;6.55;;;12.90;99.90;;;;;;5166694;28;20038;-74
2023/10/17 01:08:47;;;;;;;10.20;6.93;;;12.80;99.90;;;;;;5183448;28;20371;-74
2023/10/17 01:11:22;;;;;;;8.40;7.45;;;12.80;99.90;;;;;;5184442;28;20014;-75
2023/10/17 01:13:54;;;;;;;8.93;6.75;;;12.80;99.90;;;;;;5169386;28;20520;-74
2023/10/17 01:16:25;;;;;;;15.48;6.80;;;12.90;99.90;;;;;;5186916;28;20057;-75
2023/10/17 01:18:56;;;;;;;10.15;7.63;;;12.80;99.90;;;;;;5186860;28;20034;-74
2023/10/17 01:21:27;;;;;;;9.38;8.48;;;13.00;99.90;;;;;;5186888;28;20080;-74
2023/10/17 01:23:58;;;;;;;8.73;7.82;;;12.90;99.90;;;;;;5187050;28;20038;-74
2023/10/17 01:26:28;;;;;;;12.55;7.72;;;12.90;99.90;;;;;;5187257;28;20386;-74
2023/10/17 01:29:01;;;;;;;8.48;7.78;;;13.00;99.90;;;;;;5187742;28;20042;-74
2023/10/17 01:31:38;;;;;;;12.23;7.50;;;13.00;99.90;;;;;;5187778;28;20382;-75
2023/10/17 01:34:09;;;;;;;8.65;7.85;;;13.00;99.90;;;;;;5187784;28;20018;-73
2023/10/17 01:36:42;;;;;;;11.93;7.53;;;12.90;99.90;;;;;;5187468;28;20694;-75
2023/10/17 01:39:13;;;;;;;13.45;7.57;;;12.90;99.90;;;;;;5187538;28;20044;-76
2023/10/17 01:41:48;;;;;;;8.75;6.32;;;12.90;99.90;;;;;;5169872;28;20036;-77
2023/10/17 01:44:19;;;;;;;13.95;7.60;;;13.00;99.90;;;;;;5187317;28;20054;-75
2023/10/17 01:46:50;;;;;;;9.85;6.45;;;13.10;99.90;;;;;;5187265;28;20076;-74
2023/10/17 01:49:20;;;;;;;7.85;6.50;;;13.20;99.90;;;;;;5187134;28;20436;-75
2023/10/17 01:51:51;;;;;;;8.60;7.13;;;13.00;99.90;;;;;;5187630;28;20026;-75
2023/10/17 01:54:23;;;;;;;7.72;6.72;;;13.00;99.90;;;;;;5187535;28;20040;-75
2023/10/17 01:57:04;;;;;;;7.18;6.43;;;13.00;99.90;;;;;;5186721;28;20112;-75
2023/10/17 01:59:35;;;;;;;10.13;7.13;;;12.90;99.90;;;;;;5187338;28;20050;-74
2023/10/17 02:02:06;;;;;;;7.63;6.93;;;13.00;99.90;;;;;;5169469;28;20120;-75
2023/10/17 02:04:37;;;;;;;10.82;8.45;;;13.20;99.90;;;;;;5186567;28;20108;-75
2023/10/17 02:07:08;;;;;;;9.10;7.28;;;12.80;99.90;;;;;;5186412;28;20038;-75
2023/10/17 02:12:13;;;;;;;10.23;7.93;;;12.90;99.90;;;;;;5186002;28;20394;-76
2023/10/17 02:14:45;;;;;;;10.63;7.45;;;12.90;99.90;;;;;;5186001;28;20034;-75
2023/10/17 02:17:18;;;;;;;12.02;6.50;;;13.00;99.90;;;;;;5168141;28;20061;-75
2023/10/17 02:19:52;;;;;;;8.57;7.60;;;13.10;99.90;;;;;;5186235;28;20358;-76
2023/10/17 02:22:25;;;;;;;12.82;6.53;;;13.10;99.90;;;;;;5186107;28;20022;-76
2023/10/17 02:24:57;;;;;;;9.85;4.97;;;13.10;99.90;;;;;;5169120;28;20018;-74
2023/10/17 02:27:29;;;;;;;7.75;6.28;;;13.00;99.90;;;;;;5186376;28;20045;-74
2023/10/17 02:30:00;;;;;;;6.97;5.88;;;12.90;99.90;;;;;;5186526;28;20477;-74
2023/10/17 02:32:32;;;;;;;7.35;5.40;;;12.90;99.90;;;;;;5186543;28;20029;-74
2023/10/17 02:35:03;;;;;;;9.48;5.47;;;13.10;99.90;;;;;;5186445;28;20496;-74
2023/10/17 02:37:34;;;;;;;10.25;6.22;;;13.10;99.90;;;;;;5169191;28;20470;-75
2023/10/17 02:40:16;;;;;;;13.05;6.18;;;13.00;99.90;;;;;;5186518;28;20032;-74
2023/10/17 02:42:48;;;;;;;8.15;6.53;;;13.10;99.90;;;;;;5186781;28;20024;-74
2023/10/17 02:45:24;;;;;;;8.45;5.30;;;12.90;99.90;;;;;;5186705;28;20017;-74
2023/10/17 02:47:57;;;;;;;14.07;6.40;;;13.20;99.90;;;;;;5186248;28;20393;-75
2023/10/17 02:53:02;;;;;;;9.00;7.38;;;13.20;99.90;;;;;;5186064;28;20121;-75
2023/10/17 02:55:33;;;;;;;6.93;6.05;;;13.00;99.90;;;;;;5185911;28;20407;-74
2023/10/17 02:58:04;;;;;;;7.63;6.32;;;13.10;99.90;;;;;;5168162;28;20045;-74
2023/10/17 03:00:35;;;;;;;7.40;6.00;;;13.20;99.90;;;;;;5185307;28;20038;-73
2023/10/17 03:03:12;;;;;;;10.05;6.68;;;13.20;99.90;;;;;;5167395;28;20049;-74
2023/10/17 03:05:44;;;;;;;8.98;6.07;;;13.10;99.90;;;;;;5185046;28;20382;-74
2023/10/17 03:08:18;;;;;;;9.23;6.38;;;13.30;99.90;;;;;;5185076;28;20091;-75
2023/10/17 03:10:56;;;;;;;11.18;6.80;;;13.30;99.90;;;;;;5185136;28;20018;-75
2023/10/17 03:13:41;;;;;;;7.85;6.13;;;13.20;99.90;;;;;;5184812;28;20064;-75
2023/10/17 03:16:24;;;;;;;12.35;5.38;;;13.30;99.90;;;;;;5185095;28;20029;-75
2023/10/17 03:18:58;;;;;;;6.38;5.72;;;13.30;99.90;;;;;;5185481;28;20022;-73
2023/10/17 03:21:35;;;;;;;10.18;7.15;;;13.00;99.90;;;;;;5185732;28;20088;-74
2023/10/17 03:24:12;;;;;;;7.72;5.75;;;13.20;99.90;;;;;;5168091;28;20026;-74
2023/10/17 03:26:54;;;;;;;10.40;6.30;;;13.10;99.90;;;;;;5185470;28;20030;-76
2023/10/17 03:29:25;;;;;;;7.97;5.45;;;13.00;99.90;;;;;;5185598;28;20361;-74
2023/10/17 03:31:59;;;;;;;9.43;6.55;;;13.10;99.90;;;;;;5185289;28;20025;-74
2023/10/17 03:34:37;;;;;;;12.45;6.97;;;13.00;99.90;;;;;;5167098;28;20033;-74
2023/10/17 03:40:14;;;;;;;8.82;6.43;;;12.90;99.90;;;;;;5185587;28;20041;-74
2023/10/17 03:42:55;;;;;;;10.75;6.90;;;12.90;99.90;;;;;;5167789;28;20057;-74
2023/10/17 03:45:34;;;;;;;10.40;6.22;;;12.90;99.90;;;;;;5185686;28;20014;-74
2023/10/17 03:48:13;;;;;;;9.45;7.78;;;12.80;99.90;;;;;;5167830;28;20046;-74
2023/10/17 03:56:01;;;;;;;13.38;7.10;;;12.90;99.90;;;;;;5184709;28;20025;-74
2023/10/17 03:58:48;;;;;;;10.55;6.88;;;12.90;99.90;;;;;;5184039;28;20041;-74
2023/10/17 04:01:23;;;;;;;11.55;7.10;;;13.00;99.90;;;;;;5166436;28;20069;-74
2023/10/17 04:03:54;;;;;;;9.35;7.90;;;12.90;99.90;;;;;;5183984;28;20381;-74
2023/10/17 04:06:35;;;;;;;10.65;6.80;;;12.80;99.90;;;;;;5166409;28;20038;-74
2023/10/17 04:09:17;;;;;;;13.25;8.68;;;12.70;99.90;;;;;;5184381;28;20034;-74
2023/10/17 04:11:53;;;;;;;13.95;9.10;;;12.60;99.90;;;;;;5184272;28;20025;-74
2023/10/17 04:14:33;;;;;;;12.35;7.47;;;12.60;99.90;;;;;;5184695;28;20049;-74
2023/10/17 04:17:05;;;;;;;;;;;12.80;99.90;;;;;;5185480;28;20484;-74
2023/10/17 04:19:39;;;;;;;10.70;7.70;;;12.80;99.90;;;;;;5184973;28;19912;-74
2023/10/17 04:22:15;;;;;;;9.57;8.05;;;12.70;99.90;;;;;;5184929;28;20409;-75
2023/10/17 04:24:47;;;;;;;9.20;8.25;;;12.70;99.90;;;;;;5184787;28;20425;-74
2023/10/17 04:27:19;;;;;;;9.50;8.30;;;12.60;99.90;;;;;;5184943;28;20044;-74
2023/10/17 04:29:50;;;;;;;7.95;5.85;;;12.80;99.90;;;;;;5184983;28;20402;-77
2023/10/17 04:32:21;;;;;;;11.50;6.70;;;12.70;99.90;;;;;;5185096;28;20076;-73
2023/10/17 04:34:52;;;;;;;6.88;6.18;;;12.70;99.90;;;;;;5184689;28;20026;-74
2023/10/17 04:37:32;;;;;;;7.78;6.43;;;12.70;99.90;;;;;;5185093;28;20108;-74
2023/10/17 04:45:28;;;;;;;10.98;6.78;;;12.90;99.90;;;;;;5185619;28;20033;-74
2023/10/17 04:48:11;;;;;;;11.93;6.55;;;12.70;99.90;;;;;;5188550;28;20429;-74
2023/10/17 04:50:45;;;;;;;9.60;6.43;;;12.70;99.90;;;;;;5187914;28;20034;-76
2023/10/17 04:53:28;;;;;;;9.18;6.55;;;12.90;99.90;;;;;;5188410;28;20030;-74
2023/10/17 04:56:18;;;;;;;11.63;6.30;;;12.60;99.90;;;;;;5187401;28;20034;-74
2023/10/17 05:01:46;;;;;;;11.55;6.80;;;12.80;99.90;;;;;;5187329;28;20034;-74
2023/10/17 05:07:07;;;;;;;7.40;6.70;;;12.80;99.90;;;;;;5187226;28;20034;-74
2023/10/17 06:17:47;;;;;;;9.32;5.97;;;14.50;99.90;;;;;;5124516;29;20482;-73
2023/10/17 06:20:19;;;;;;;10.75;5.95;;;14.50;99.90;;;;;;5137234;28;20042;-74
2023/10/17 06:28:34;;;;;;;7.47;6.00;;;14.70;99.90;;;;;;5166254;28;20041;-74
2023/10/17 06:34:02;;;;;;;11.25;6.55;;;14.70;99.90;;;;;;5166464;28;20536;-77
2023/10/17 06:36:39;;;;;;;7.22;6.47;;;14.80;99.90;;;;;;5164590;28;20027;-74
2023/10/17 06:39:17;;;;;;;13.57;6.38;;;14.90;99.90;;;;;;5166118;28;20026;-74
2023/10/17 06:41:50;;;;;;;9.00;5.53;;;15.10;99.90;;;;;;5165739;28;20019;-75
2023/10/17 06:44:26;;;;;;;9.80;5.68;;;15.00;99.90;;;;;;5165890;28;20032;-75
2023/10/17 06:47:07;;;;;;;12.05;5.85;;;15.20;99.90;;;;;;5165028;28;20058;-75
2023/10/17 06:54:50;;;;;;;7.32;5.57;;;15.30;99.90;;;;;;5164891;28;20489;-74
2023/10/17 06:57:23;;;;;;;9.88;6.10;;;15.20;99.90;;;;;;5164907;28;20022;-76
2023/10/17 07:00:01;;;;;;;9.65;6.65;;;15.30;99.90;;;;;;5147406;28;20109;-74
2023/10/17 07:02:34;;;;;;;12.27;7.30;;;15.30;99.90;;;;;;5148360;28;20117;-74
2023/10/17 07:05:05;;;;;;;15.98;6.72;;;15.40;99.90;;;;;;5165755;28;20027;-76
2023/10/17 07:07:45;;;;;;;13.90;6.72;;;15.40;99.90;;;;;;5165421;28;20482;-74
2023/10/17 07:13:39;;;;;;;14.70;7.18;;;15.10;99.90;;;;;;5165599;28;20034;-74
2023/10/17 07:16:16;;;;;;;16.67;7.18;;;15.20;99.90;;;;;;5165450;28;20030;-74
2023/10/17 07:18:51;;;;;;;8.90;6.10;;;15.30;99.90;;;;;;5165514;28;20022;-74
2023/10/17 07:21:25;;;;;;;8.05;6.30;;;15.00;99.90;;;;;;5165622;28;20034;-76
2023/10/17 07:24:00;;;;;;;9.32;6.25;;;15.30;99.90;;;;;;5177604;28;20476;-75
2023/10/17 07:29:05;;;;;;;9.40;6.25;;;15.10;99.90;;;;;;5184672;28;20045;-75
2023/10/17 07:31:36;;;;;;;7.95;6.60;;;15.20;99.90;;;;;;5185091;28;20060;-74
2023/10/17 07:34:16;;;;;;;10.32;6.88;;;15.30;99.90;;;;;;5167119;28;20519;-75
2023/10/17 07:36:50;;;;;;;10.30;6.22;;;15.30;99.90;;;;;;5184954;28;20022;-74
2023/10/17 07:39:24;;;;;;;13.10;7.35;;;15.30;99.90;;;;;;5184785;28;20053;-75
2023/10/17 07:41:55;;;;;;;13.10;6.97;;;15.60;99.90;;;;;;5166714;28;20033;-74
2023/10/17 07:44:27;;;;;;;9.70;7.07;;;15.40;99.90;;;;;;5184336;28;20036;-75
2023/10/17 07:47:08;;;;;;;11.93;6.55;;;15.10;99.90;;;;;;5183608;28;20067;-74
2023/10/17 07:49:41;;;;;;;9.05;6.50;;;15.40;99.90;;;;;;5183879;28;20638;-74
2023/10/17 07:52:22;;;;;;;8.27;6.63;;;15.40;99.90;;;;;;5184318;28;20122;-75
2023/10/17 07:54:57;;;;;;;12.10;7.07;;;15.60;99.90;;;;;;5184557;28;20095;-74
2023/10/17 07:57:36;;;;;;;12.07;7.40;;;15.50;99.90;;;;;;5185193;28;20021;-74
2023/10/17 08:00:33;;;;;;;7.72;6.53;;;15.40;99.90;;;;;;5185038;28;20061;-74
2023/10/17 08:03:15;;;;;;;8.90;5.85;;;15.60;99.90;;;;;;5167452;28;20128;-75
2023/10/17 08:06:05;;;;;;;10.63;6.05;;;15.70;99.90;;;;;;5185074;28;20543;-74
2023/10/17 08:08:42;;;;;;;9.77;6.53;;;15.80;99.90;;;;;;5185193;28;20080;-74
2023/10/17 08:11:28;;;;;;;11.80;6.88;;;15.90;99.90;;;;;;5185275;28;20026;-74
2023/10/17 08:14:03;;;;;;;6.15;5.47;;;16.00;99.90;;;;;;5185095;28;20458;-75
2023/10/17 08:16:39;;;;;;;9.43;5.15;;;16.20;99.90;;;;;;5185011;28;20034;-74
2023/10/17 08:19:13;;;;;;;10.88;4.80;;;16.20;99.90;;;;;;5185263;28;20359;-77
2023/10/17 08:24:40;;;;;;;11.73;7.13;;;16.40;99.90;;;;;;5189255;28;20117;-74
2023/10/17 08:30:00;;;;;;;10.02;8.98;;;16.50;99.90;;;;;;5188969;28;20129;-75
2023/10/17 08:32:47;;;;;;;8.38;7.57;;;16.60;99.90;;;;;;5188585;28;20613;-74
2023/10/17 08:35:20;;;;;;;10.90;8.02;;;16.60;99.90;;;;;;5188594;28;20029;-74
2023/10/17 08:37:52;;;;;;;8.23;6.32;;;16.60;99.90;;;;;;5187633;28;20100;-75
2023/10/17 08:40:38;;;;;;;7.45;5.60;;;16.60;99.90;;;;;;5187770;28;20113;-75
2023/10/17 08:43:14;;;;;;;8.13;5.32;;;16.60;99.90;;;;;;5187474;28;20022;-74
2023/10/17 08:45:47;;;;;;;7.88;4.97;;;16.60;99.90;;;;;;5187420;28;20021;-74
2023/10/17 08:48:19;;;;;;;7.38;5.15;;;16.60;99.90;;;;;;5187624;28;20105;-74
2023/10/17 08:50:55;;;;;;;9.10;5.43;;;16.50;99.90;;;;;;5187697;28;20030;-75
2023/10/17 08:53:30;;;;;;;7.30;5.38;;;16.60;99.90;;;;;;5188605;28;20025;-74
2023/10/17 08:56:02;;;;;;;7.82;5.32;;;16.50;99.90;;;;;;5170592;28;20045;-75
2023/10/17 08:58:36;;;;;;;7.55;6.15;;;16.60;99.90;;;;;;5187692;28;20128;-74
2023/10/17 09:01:17;;;;;;;11.00;5.57;;;16.60;99.90;;;;;;5188317;28;20513;-75
2023/10/17 09:03:48;;;;;;;6.72;5.43;;;16.50;99.90;;;;;;5188326;28;20025;-75
2023/10/17 09:11:30;;;;;;;10.60;8.00;;;16.40;99.90;;;;;;5188266;28;20037;-75
2023/10/17 09:14:17;;;;;;;11.40;7.85;;;16.50;99.90;;;;;;5188182;28;20026;-74
2023/10/17 09:17:00;;;;;;;10.57;5.78;;;16.40;99.90;;;;;;5188000;28;20022;-74
2023/10/17 09:19:46;;;;;;;26.13;16.13;;;16.40;99.90;;;;;;5170198;28;20026;-75
2023/10/17 09:22:21;;;;;;;13.63;6.13;;;16.40;99.90;;;;;;5188253;28;20022;-74
2023/10/17 09:24:53;;;;;;;7.38;4.47;;;16.20;99.90;;;;;;5188083;28;20034;-74
2023/10/17 09:27:24;;;;;;;8.63;4.85;;;16.20;99.90;;;;;;5187652;28;20038;-75
2023/10/17 09:29:57;;;;;;;11.20;4.75;;;16.30;99.90;;;;;;5187392;28;20030;-74
2023/10/17 09:32:36;;;;;;;10.60;5.25;;;16.40;99.90;;;;;;5185913;28;20029;-74
2023/10/17 09:35:15;;;;;;;10.45;6.95;;;16.40;99.90;;;;;;5168929;28;20030;-74
2023/10/17 09:37:50;;;;;;;13.17;9.67;;;16.40;99.90;;;;;;5169034;28;20155;-76
2023/10/17 09:40:29;;;;;;;10.23;6.20;;;16.40;99.90;;;;;;5186527;28;20018;-75
2023/10/17 09:43:00;;;;;;;10.57;5.43;;;16.20;99.90;;;;;;5186232;28;20022;-75
2023/10/17 09:45:35;;;;;;;12.25;6.00;;;16.30;99.90;;;;;;5186213;28;20030;-74
2023/10/17 09:48:07;;;;;;;8.40;6.85;;;16.30;99.90;;;;;;5186894;28;20471;-74
2023/10/17 09:50:39;;;;;;;7.15;5.90;;;16.20;99.90;;;;;;5187422;28;20484;-77
2023/10/17 09:53:18;;;;;;;9.07;6.18;;;16.40;99.90;;;;;;5187120;28;20030;-76
2023/10/17 09:55:50;;;;;;;14.25;8.27;;;16.40;99.90;;;;;;5187362;28;20057;-74
2023/10/17 09:58:28;;;;;;;13.38;8.82;;;16.40;99.90;;;;;;5186949;28;20136;-74
2023/10/17 10:01:14;;;;;;;10.15;7.10;;;16.20;99.90;;;;;;5187092;28;20485;-75
2023/10/17 10:03:48;;;;;;;11.35;7.35;;;16.30;99.90;;;;;;5187172;28;20026;-74
2023/10/17 10:06:21;;;;;;;25.60;14.95;;;16.30;99.90;;;;;;5187080;28;20062;-74
2023/10/17 10:09:23;;;;;;;23.05;12.40;;;16.30;99.90;;;;;;5169522;28;20038;-75
2023/10/17 10:11:55;;;;;;;12.65;7.30;;;16.40;99.90;;;;;;5169753;28;20563;-74
2023/10/17 10:14:26;;;;;;;12.73;7.72;;;16.50;99.90;;;;;;5187043;28;20018;-74
2023/10/17 10:16:59;;;;;;;8.23;6.78;;;16.50;99.90;;;;;;5186675;28;20026;-75
2023/10/17 10:19:43;;;;;;;11.68;6.72;;;16.40;99.90;;;;;;5186667;28;20014;-74
2023/10/17 10:22:15;;;;;;;10.55;7.00;;;16.20;99.90;;;;;;5186960;28;20022;-74
2023/10/17 10:25:01;;;;;;;12.27;6.70;;;16.20;99.90;;;;;;5186466;28;20505;-74
2023/10/17 10:27:32;;;;;;;11.05;7.03;;;16.20;99.90;;;;;;5168601;28;20045;-76
2023/10/17 10:30:31;;;;;;;22.15;14.52;;;16.30;99.90;;;;;;5167817;28;20062;-75
2023/10/17 10:33:02;;;;;;;18.13;11.30;;;16.40;99.90;;;;;;5185628;28;20030;-74
2023/10/17 10:35:33;;;;;;;17.27;9.93;;;16.30;99.90;;;;;;5185806;28;20030;-75
2023/10/17 10:38:04;;;;;;;10.50;7.10;;;16.40;99.90;;;;;;5185578;28;20496;-75
2023/10/17 10:40:39;;;;;;;10.27;6.82;;;16.40;99.90;;;;;;5167604;28;20034;-75
2023/10/17 10:43:18;;;;;;;11.75;7.30;;;16.50;99.90;;;;;;5185145;28;20018;-76
2023/10/17 10:45:55;;;;;;;11.68;6.63;;;16.60;99.90;;;;;;5186305;28;20038;-75
2023/10/17 10:48:26;;;;;;;11.20;6.38;;;16.70;99.90;;;;;;5186164;28;20034;-74
2023/10/17 10:50:57;;;;;;;8.85;5.93;;;16.70;99.90;;;;;;5168632;28;20045;-75
2023/10/17 10:53:29;;;;;;;10.23;6.55;;;16.70;99.90;;;;;;5185984;28;20026;-76
2023/10/17 10:56:09;;;;;;;10.95;6.20;;;16.60;99.90;;;;;;5168778;28;20029;-75
2023/10/17 10:58:48;;;;;;;13.73;6.78;;;16.50;99.90;;;;;;5186265;28;20132;-74
2023/10/17 11:01:20;;;;;;;10.48;6.15;;;16.60;99.90;;;;;;5186187;28;20044;-77
2023/10/17 11:03:52;;;;;;;14.13;7.65;;;16.50;99.90;;;;;;5168454;28;20018;-74
2023/10/17 11:06:25;;;;;;;13.35;6.85;;;16.60;99.90;;;;;;5186032;28;20505;-75
2023/10/17 11:08:56;;;;;;;26.70;12.75;;;16.80;99.90;;;;;;5185939;28;20030;-75
2023/10/17 11:11:26;;;;;;;17.60;11.32;;;16.70;99.90;;;;;;5168364;28;20034;-77
2023/10/17 11:13:57;;;;;;;14.07;6.90;;;16.70;99.90;;;;;;5167888;28;20026;-75
2023/10/17 11:16:28;;;;;;;11.85;7.93;;;16.60;99.90;;;;;;5185395;28;20030;-75
2023/10/17 11:19:01;;;;;;;13.40;7.82;;;16.70;99.90;;;;;;5185334;28;20040;-76
2023/10/17 11:21:32;;;;;;;11.45;5.80;;;16.60;99.90;;;;;;5167125;28;20850;-76
2023/10/17 11:24:06;;;;;;;9.95;7.35;;;16.60;99.90;;;;;;5185409;28;20057;-75
2023/10/17 11:26:41;;;;;;;12.15;7.03;;;16.60;99.90;;;;;;5184336;28;20029;-75
2023/10/17 11:29:12;;;;;;;10.32;8.68;;;16.60;99.90;;;;;;5166757;28;20030;-75
2023/10/17 11:31:44;;;;;;;14.05;10.05;;;16.60;99.90;;;;;;5183833;28;20036;-76
2023/10/17 11:34:15;;;;;;;11.07;10.07;;;16.50;99.90;;;;;;5183824;28;20100;-75
2023/10/17 11:36:51;;;;;;;12.43;11.18;;;16.60;99.90;;;;;;5183607;28;20096;-75
2023/10/17 11:39:26;;;;;;;13.50;11.43;;;16.70;99.90;;;;;;5184599;28;20450;-74
2023/10/17 11:41:57;;;;;;;12.85;11.75;;;16.60;99.90;;;;;;5185307;28;20018;-75
2023/10/17 11:44:31;;;;;;;11.75;10.65;;;16.60;99.90;;;;;;5185449;28;20067;-74
2023/10/17 11:47:21;;;;;;;15.40;11.57;;;16.70;99.90;;;;;;5185135;28;20084;-74
2023/10/17 11:49:52;;;;;;;;;;;16.70;99.90;;;;;;5185819;28;20079;-74
2023/10/17 11:52:24;;;;;;;14.07;12.60;;;16.80;99.90;;;;;;5185079;28;19953;-75
2023/10/17 11:55:12;;;;;;;15.38;12.70;;;16.70;99.90;;;;;;5184424;28;20049;-75
2023/10/17 11:57:49;;;;;;;16.90;12.80;;;16.80;99.90;;;;;;5185222;28;20033;-75
2023/10/17 12:00:28;;;;;;;15.23;13.77;;;16.70;99.90;;;;;;5167445;28;20054;-78
2023/10/17 12:02:59;;;;;;;14.30;12.87;;;16.80;99.90;;;;;;5185182;28;20105;-75
2023/10/17 12:05:32;;;;;;;12.00;9.98;;;16.80;99.90;;;;;;5185129;28;20101;-76
2023/10/17 12:08:03;;;;;;;9.25;7.43;;;16.70;99.90;;;;;;5185000;28;20057;-76
2023/10/17 12:10:36;;;;;;;10.30;7.18;;;16.60;99.90;;;;;;5167051;28;20785;-76
2023/10/17 12:13:08;;;;;;;6.57;5.80;;;16.50;99.90;;;;;;5167484;28;20355;-75
2023/10/17 12:15:39;;;;;;;8.65;5.60;;;16.60;99.90;;;;;;5184937;28;20105;-75
2023/10/17 12:18:10;;;;;;;8.43;6.28;;;16.70;99.90;;;;;;5166955;28;20182;-74
2023/10/17 12:20:41;;;;;;;8.25;6.78;;;16.70;99.90;;;;;;5167165;28;20022;-74
2023/10/17 12:23:12;;;;;;;7.88;5.75;;;16.70;99.90;;;;;;5184117;28;20108;-76
2023/10/17 12:25:44;;;;;;;7.75;5.50;;;16.70;99.90;;;;;;5183742;28;20021;-75
2023/10/17 12:28:15;;;;;;;10.40;6.80;;;16.80;99.90;;;;;;5166177;28;20072;-75
2023/10/17 12:30:46;;;;;;;8.95;6.22;;;16.70;99.90;;;;;;5183717;28;20053;-75
2023/10/17 12:33:22;;;;;;;10.50;6.88;;;16.80;99.90;;;;;;5183788;28;20030;-76
2023/10/17 12:35:53;;;;;;;8.18;7.03;;;16.80;99.90;;;;;;5184069;28;20026;-75
2023/10/17 12:38:25;;;;;;;10.05;7.28;;;16.80;99.90;;;;;;5166898;28;20034;-76
2023/10/17 12:40:56;;;;;;;9.48;7.95;;;16.80;99.90;;;;;;5184561;28;20026;-75
2023/10/17 12:43:27;;;;;;;10.55;7.47;;;16.80;99.90;;;;;;5184509;28;20050;-76
2023/10/17 12:45:58;;;;;;;10.02;8.23;;;16.80;99.90;;;;;;5184608;28;20091;-75
2023/10/17 12:48:28;;;;;;;9.27;6.97;;;16.80;99.90;;;;;;5184056;28;20038;-76
2023/10/17 12:50:59;;;;;;;8.23;7.10;;;16.80;99.90;;;;;;5184548;28;20033;-76
2023/10/17 12:53:30;;;;;;;9.32;6.50;;;16.80;99.90;;;;;;5184581;28;20026;-74
2023/10/17 12:56:04;;;;;;;11.90;6.85;;;17.00;99.90;;;;;;5184617;28;20121;-74
2023/10/17 12:58:36;;;;;;;8.95;5.80;;;16.80;99.90;;;;;;5184309;28;20050;-75
2023/10/17 13:01:07;;;;;;;9.30;6.43;;;16.90;99.90;;;;;;5184427;28;20083;-75
2023/10/17 13:03:38;;;;;;;8.82;6.50;;;16.90;99.90;;;;;;5184648;28;20037;-75
2023/10/17 13:06:09;;;;;;;10.05;6.07;;;17.00;99.90;;;;;;5184836;28;20057;-75
2023/10/17 13:08:40;;;;;;;12.85;6.75;;;16.90;99.90;;;;;;5170357;28;20030;-75
2023/10/17 13:11:11;;;;;;;9.68;5.72;;;16.80;99.90;;;;;;5188029;28;20362;-75
2023/10/17 13:13:42;;;;;;;9.60;6.22;;;17.00;99.90;;;;;;5187079;28;20030;-76
2023/10/17 13:16:13;;;;;;;8.65;6.07;;;17.00;99.90;;;;;;5169736;28;20543;-75
2023/10/17 13:18:47;;;;;;;10.65;5.95;;;16.80;99.90;;;;;;5186876;28;20461;-75
2023/10/17 13:21:18;;;;;;;8.00;5.95;;;16.90;99.90;;;;;;5187068;28;20108;-75
2023/10/17 13:23:49;;;;;;;7.18;5.45;;;16.90;99.90;;;;;;5186638;28;20033;-74
2023/10/17 13:26:20;;;;;;;9.40;5.28;;;16.90;99.90;;;;;;5186523;28;20455;-75
2023/10/17 13:28:53;;;;;;;8.98;6.45;;;16.80;99.90;;;;;;5169014;28;20149;-76
2023/10/17 13:31:24;;;;;;;8.75;5.90;;;16.70;99.90;;;;;;5169405;28;20383;-75
2023/10/17 13:33:55;;;;;;;10.70;6.25;;;16.80;99.90;;;;;;5187920;28;20036;-75
2023/10/17 13:36:26;;;;;;;10.48;6.45;;;16.70;99.90;;;;;;5187783;28;20014;-75
2023/10/17 13:38:57;;;;;;;9.32;6.18;;;16.60;99.90;;;;;;5187695;28;20031;-75
2023/10/17 13:41:29;;;;;;;10.05;6.75;;;16.70;99.90;;;;;;5187691;28;20014;-75
2023/10/17 13:44:00;;;;;;;8.43;6.18;;;16.70;99.90;;;;;;5187292;28;20038;-75
2023/10/17 13:46:35;;;;;;;7.32;5.90;;;16.70;99.90;;;;;;5187451;28;20036;-75
2023/10/17 13:49:05;;;;;;;9.20;5.13;;;16.60;99.90;;;;;;5169948;28;20553;-75
2023/10/17 13:51:38;;;;;;;11.15;5.50;;;16.50;99.90;;;;;;5187502;28;20112;-75
2023/10/17 13:54:09;;;;;;;9.73;5.55;;;16.60;99.90;;;;;;5187211;28;20030;-75
2023/10/17 13:56:41;;;;;;;11.90;5.38;;;16.40;99.90;;;;;;5187185;28;20048;-75
2023/10/17 13:59:13;;;;;;;8.80;5.43;;;16.50;99.90;;;;;;5169278;28;20426;-74
2023/10/17 14:01:47;;;;;;;8.25;5.75;;;16.40;99.90;;;;;;5187104;28;20030;-75
2023/10/17 14:04:18;;;;;;;9.15;6.40;;;16.40;99.90;;;;;;5187228;28;20428;-75
2023/10/17 14:06:50;;;;;;;15.13;6.43;;;16.30;99.90;;;;;;5169713;28;20056;-74
2023/10/17 14:09:23;;;;;;;10.18;6.82;;;16.40;99.90;;;;;;5186571;28;20022;-75
2023/10/17 14:11:54;;;;;;;9.63;6.55;;;16.30;99.90;;;;;;5169306;28;20037;-75
2023/10/17 14:14:25;;;;;;;11.82;7.70;;;16.40;99.90;;;;;;5167667;28;20018;-77
2023/10/17 14:16:58;;;;;;;12.77;7.35;;;16.50;99.90;;;;;;5167944;28;20026;-75
2023/10/17 14:27:32;;;;;;;11.25;7.50;;;16.50;99.90;;;;;;5185455;28;20037;-74
2023/10/17 14:30:05;;;;;;;8.55;6.57;;;16.50;99.90;;;;;;5186623;28;20429;-75
2023/10/17 14:32:36;;;;;;;10.82;6.22;;;16.40;99.90;;;;;;5186669;28;20037;-75
2023/10/17 14:35:07;;;;;;;8.45;6.40;;;16.50;99.90;;;;;;5186284;28;20042;-74
2023/10/17 14:37:39;;;;;;;10.32;6.97;;;16.50;99.90;;;;;;5186088;28;20405;-75
2023/10/17 14:40:12;;;;;;;10.57;6.75;;;16.50;99.90;;;;;;5186582;28;20457;-75
2023/10/17 14:42:44;;;;;;;9.98;6.82;;;16.50;99.90;;;;;;5186557;28;20105;-75
2023/10/17 14:45:15;;;;;;;11.05;6.85;;;16.60;99.90;;;;;;5186617;28;20087;-75
2023/10/17 14:47:47;;;;;;;11.68;7.22;;;16.60;99.90;;;;;;5168647;28;20428;-76
2023/10/17 14:50:18;;;;;;;12.70;6.40;;;16.50;99.90;;;;;;5168679;28;20485;-74
2023/10/17 14:52:49;;;;;;;15.70;7.70;;;16.30;99.90;;;;;;5186316;28;20097;-75
2023/10/17 14:55:28;;;;;;;10.90;6.30;;;16.20;99.90;;;;;;5186138;28;20108;-75
2023/10/17 14:58:00;;;;;;;11.75;6.35;;;16.20;99.90;;;;;;5185656;28;20028;-76
2023/10/17 15:00:34;;;;;;;14.27;9.80;;;16.20;99.90;;;;;;5185816;28;20037;-75
2023/10/17 15:03:05;;;;;;;11.65;5.75;;;16.40;99.90;;;;;;5185890;28;20560;-75
2023/10/17 15:05:39;;;;;;;10.07;5.53;;;16.30;99.90;;;;;;5167144;28;20051;-76
2023/10/17 15:08:11;;;;;;;11.98;7.60;;;16.30;99.90;;;;;;5184671;28;20124;-75
2023/10/17 15:10:41;;;;;;;15.50;10.05;;;16.20;99.90;;;;;;5184572;28;20022;-75
2023/10/17 15:13:12;;;;;;;15.70;7.90;;;16.30;99.90;;;;;;5184812;28;20018;-76
2023/10/17 15:15:43;;;;;;;9.85;6.38;;;16.30;99.90;;;;;;5167029;28;20037;-76
2023/10/17 15:18:14;;;;;;;10.50;5.35;;;16.20;99.90;;;;;;5184535;28;20032;-75
2023/10/17 15:20:45;;;;;;;11.00;5.97;;;16.10;99.90;;;;;;5184702;28;20022;-75
2023/10/17 15:23:16;;;;;;;13.63;6.15;;;16.30;99.90;;;;;;5185069;28;20104;-74
2023/10/17 15:25:54;;;;;;;14.18;7.78;;;16.30;99.90;;;;;;5167675;28;20120;-75
2023/10/17 15:28:25;;;;;;;13.88;10.55;;;16.10;99.90;;;;;;5167135;28;20041;-76